createdAt,value
2018-11-27T10:16:44.127Z,100728.95
2018-11-27T10:17:21.863Z,100734.31
2018-11-27T10:18:06.099Z,100734.31
2018-11-27T10:18:43.844Z,100740.19
2018-11-27T10:19:26.629Z,100743.72
2018-11-27T10:20:00.148Z,100743.72
2018-11-27T10:20:47.469Z,100736.46
2018-11-27T10:21:25.326Z,100736.46
2018-11-27T10:22:03.373Z,100745.36
2018-11-27T10:22:41.105Z,100744.30
2018-11-27T10:23:19.136Z,100744.84
2018-11-27T10:23:57.039Z,100744.84
2018-11-27T10:24:34.916Z,100727.14
2018-11-27T10:25:15.881Z,100745.42
2018-11-27T10:25:53.667Z,100745.42
2018-11-27T10:26:31.397Z,100742.52
2018-11-27T10:27:09.131Z,100747.38
2018-11-27T10:27:47.314Z,100747.38
2018-11-27T10:28:24.993Z,100748.17
2018-11-27T10:29:02.737Z,100751.42
2018-11-27T10:29:40.499Z,100742.07
2018-11-27T10:30:21.981Z,100742.07
2018-11-27T10:30:59.769Z,100746.89
2018-11-27T10:31:37.720Z,100752.03
2018-11-27T10:32:15.600Z,100747.98
2018-11-27T10:32:54.070Z,100747.98
2018-11-27T10:33:31.795Z,100750.16
2018-11-27T10:34:10.451Z,100750.42
2018-11-27T10:34:48.321Z,100759.86
2018-11-27T10:35:40.140Z,100759.86
2018-11-27T10:36:18.039Z,100752.59
2018-11-27T10:36:55.739Z,100755.01
2018-11-27T10:37:33.717Z,100761.49
2018-11-27T10:38:10.695Z,100761.49
2018-11-27T10:38:48.732Z,100767.98
2018-11-27T10:39:27.310Z,100762.06
2018-11-27T10:40:05.018Z,100770.95
2018-11-27T10:40:42.706Z,100771.50
2018-11-27T10:41:20.503Z,100768.55
2018-11-27T10:41:58.221Z,100769.37
2018-11-27T10:42:35.859Z,100771.79
2018-11-27T10:43:19.498Z,100768.03
2018-11-27T10:43:52.126Z,100775.83
2018-11-27T10:44:29.816Z,100772.63
2018-11-27T10:45:08.308Z,100772.63
2018-11-27T10:45:46.066Z,100770.20
2018-11-27T10:46:23.765Z,100757.09
2018-11-27T10:47:01.420Z,100772.39
2018-11-27T10:47:39.261Z,100777.29
2018-11-27T10:48:17.074Z,100777.29
2018-11-27T10:48:55.141Z,100776.23
2018-11-27T10:49:32.856Z,100778.14
2018-11-27T10:50:16.078Z,100778.14
2018-11-27T10:50:56.592Z,100780.32
2018-11-27T10:51:34.494Z,100778.42
2018-11-27T10:52:12.323Z,100777.62
2018-11-27T10:52:56.915Z,100777.62
2018-11-27T10:53:35.168Z,100780.08
2018-11-27T10:54:13.079Z,100780.08
2018-11-27T10:54:50.874Z,100783.86
2018-11-27T10:55:28.669Z,100783.06
2018-11-27T10:56:06.440Z,100790.34
2018-11-27T10:56:44.327Z,100783.34
2018-11-27T10:57:22.166Z,100789.28
2018-11-27T10:58:00.012Z,100789.02
2018-11-27T10:58:37.760Z,100789.02
2018-11-27T10:59:15.674Z,100790.91
2018-11-27T10:59:53.604Z,100788.22
2018-11-27T11:00:48.460Z,100786.61
2018-11-27T11:01:43.412Z,100786.61
2018-11-27T11:02:37.044Z,100784.73
2018-11-27T11:03:33.171Z,100789.06
2018-11-27T11:04:11.136Z,100788.00
2018-11-27T11:04:49.033Z,100780.74
2018-11-27T11:05:33.418Z,100782.09
2018-11-27T11:06:54.028Z,100779.94
2018-11-27T11:08:28.563Z,100781.84
2018-11-27T11:09:08.878Z,100781.59
2018-11-27T11:09:46.862Z,100783.20
2018-11-27T11:10:24.706Z,100779.69
2018-11-27T11:11:02.666Z,100781.58
2018-11-27T11:11:40.557Z,100779.69
2018-11-27T11:12:18.353Z,100778.08
2018-11-27T11:12:56.110Z,100784.27
2018-11-27T11:13:34.007Z,100782.37
2018-11-27T11:14:11.878Z,100782.37
2018-11-27T11:14:49.623Z,100785.08
2018-11-27T11:15:27.507Z,100795.05
2018-11-27T11:16:05.363Z,100787.51
2018-11-27T11:16:43.301Z,100788.86
2018-11-27T11:17:21.231Z,100787.77
2018-11-27T11:17:59.285Z,100789.94
2018-11-27T11:18:37.313Z,100792.90
2018-11-27T11:19:18.344Z,100791.55
2018-11-27T11:19:54.928Z,100789.66
2018-11-27T11:20:32.790Z,100788.86
2018-11-27T11:21:10.860Z,100790.75
2018-11-27T11:21:48.912Z,100788.59
2018-11-27T11:22:26.902Z,100790.48
2018-11-27T11:23:04.849Z,100789.42
2018-11-27T11:23:42.583Z,100787.01
2018-11-27T11:24:20.279Z,100794.01
2018-11-27T11:24:58.067Z,100791.86
2018-11-27T11:25:35.896Z,100795.64
2018-11-27T11:26:13.706Z,100792.68
2018-11-27T11:26:51.534Z,100797.27
2018-11-27T11:27:29.399Z,100805.34
2018-11-27T11:28:07.294Z,100803.20
2018-11-27T11:28:45.094Z,100811.02
2018-11-27T11:29:22.757Z,100809.67
2018-11-27T11:30:00.790Z,100813.19
2018-11-27T11:30:38.858Z,100813.19
2018-11-27T11:31:16.828Z,100810.50
2018-11-27T11:31:54.876Z,100816.69
2018-11-27T11:32:32.737Z,100815.89
2018-11-27T11:33:11.426Z,100823.42
2018-11-27T11:33:49.850Z,100817.23
2018-11-27T11:34:27.785Z,100822.62
2018-11-27T11:35:05.689Z,100822.62
2018-11-27T11:35:43.540Z,100823.42
2018-11-27T11:36:21.369Z,100826.12
2018-11-27T11:36:59.329Z,100822.91
2018-11-27T11:37:37.355Z,100829.36
2018-11-27T11:38:15.273Z,100825.05
2018-11-27T11:38:53.231Z,100826.40
2018-11-27T11:39:30.988Z,100826.40
2018-11-27T11:40:26.336Z,100829.36
2018-11-27T11:41:04.096Z,100826.14
2018-11-27T11:41:41.971Z,100829.91
2018-11-27T11:42:19.963Z,100826.70
2018-11-27T11:42:59.101Z,100829.64
2018-11-27T11:43:37.218Z,100831.53
2018-11-27T11:44:54.719Z,100826.69
2018-11-27T11:45:49.828Z,100828.58
2018-11-27T11:46:27.683Z,100833.98
2018-11-27T11:47:23.747Z,100831.57
2018-11-27T11:48:01.692Z,100832.66
2018-11-27T11:48:39.558Z,100828.89
2018-11-27T11:49:17.343Z,100833.22
2018-11-27T11:49:55.043Z,100834.56
2018-11-27T11:50:37.374Z,100829.98
2018-11-27T11:51:26.519Z,100826.22
2018-11-27T11:52:04.506Z,100833.75
2018-11-27T11:52:45.336Z,100832.14
2018-11-27T11:53:21.661Z,100834.30
2018-11-27T11:53:59.259Z,100828.91
2018-11-27T11:54:37.220Z,100832.41
2018-11-27T11:55:16.541Z,100828.91
2018-11-27T11:55:54.457Z,100830.25
2018-11-27T11:56:32.287Z,100832.14
2018-11-27T11:57:10.271Z,100836.99
2018-11-27T11:57:48.344Z,100835.64
2018-11-27T11:58:26.136Z,100833.49
2018-11-27T11:59:04.145Z,100838.60
2018-11-27T11:59:42.196Z,100839.69
2018-11-27T12:00:25.675Z,100835.64
2018-11-27T12:01:03.481Z,100835.64
2018-11-27T12:01:42.152Z,100835.38
2018-11-27T12:02:19.907Z,100842.64
2018-11-27T12:02:57.859Z,100839.69
2018-11-27T12:03:35.607Z,100839.69
2018-11-27T12:04:13.334Z,100839.69
2018-11-27T12:04:51.407Z,100839.69
2018-11-27T12:05:29.201Z,100828.16
2018-11-27T12:06:06.917Z,100839.42
2018-11-27T12:06:44.813Z,100846.96
2018-11-27T12:07:22.766Z,100837.53
2018-11-27T12:08:00.461Z,100843.46
2018-11-27T12:08:38.227Z,100839.69
2018-11-27T12:09:16.222Z,100842.38
2018-11-27T12:09:54.440Z,100845.07
2018-11-27T12:10:32.183Z,100842.38
2018-11-27T12:11:10.438Z,100843.72
2018-11-27T12:11:48.191Z,100847.77
2018-11-27T12:12:26.033Z,100842.92
2018-11-27T12:13:03.750Z,100846.42
2018-11-27T12:13:41.672Z,100843.46
2018-11-27T12:14:19.635Z,100852.89
2018-11-27T12:14:57.578Z,100847.77
2018-11-27T12:15:35.318Z,100852.61
2018-11-27T12:16:13.092Z,100853.95
2018-11-27T12:16:50.790Z,100860.15
2018-11-27T12:17:29.040Z,100862.03
2018-11-27T12:18:07.221Z,100861.23
2018-11-27T12:18:44.952Z,100867.97
2018-11-27T12:19:22.747Z,100861.23
2018-11-27T12:20:00.468Z,100867.70
2018-11-27T12:20:38.335Z,100866.36
2018-11-27T12:21:16.052Z,100873.09
2018-11-27T12:21:53.859Z,100871.48
2018-11-27T12:22:32.004Z,100868.00
2018-11-27T12:23:10.944Z,100883.34
2018-11-27T12:23:48.675Z,100871.49
2018-11-27T12:24:26.400Z,100877.69
2018-11-27T12:25:04.398Z,100881.20
2018-11-27T12:25:42.820Z,100889.28
2018-11-27T12:26:20.477Z,100890.08
2018-11-27T12:26:58.318Z,100894.67
2018-11-27T12:27:36.195Z,100886.32
2018-11-27T12:28:15.101Z,100887.67
2018-11-27T12:28:52.865Z,100895.75
2018-11-27T12:29:30.643Z,100897.90
2018-11-27T12:30:12.897Z,100895.75
2018-11-27T12:30:50.582Z,100897.36
2018-11-27T12:31:28.483Z,100896.55
2018-11-27T12:32:06.453Z,100896.29
2018-11-27T12:32:44.379Z,100900.88
2018-11-27T12:33:22.076Z,100895.22
2018-11-27T12:34:00.162Z,100899.53
2018-11-27T12:34:37.909Z,100894.66
2018-11-27T12:35:16.861Z,100900.88
2018-11-27T12:35:54.715Z,100898.70
2018-11-27T12:36:32.439Z,100904.09
2018-11-27T12:37:10.464Z,100900.05
2018-11-27T12:37:48.454Z,100898.70
2018-11-27T12:38:26.178Z,100897.36
2018-11-27T12:39:04.056Z,100897.09
2018-11-27T12:39:41.926Z,100903.56
2018-11-27T12:40:30.133Z,100901.41
2018-11-27T12:41:10.335Z,100908.68
2018-11-27T12:41:46.912Z,100908.95
2018-11-27T12:42:24.616Z,100906.55
2018-11-27T12:43:04.994Z,100910.84
2018-11-27T12:43:43.947Z,100906.55
2018-11-27T12:44:21.747Z,100907.63
2018-11-27T12:44:59.676Z,100914.09
2018-11-27T12:45:37.547Z,100907.90
2018-11-27T12:46:15.255Z,100908.44
2018-11-27T12:46:53.204Z,100915.17
2018-11-27T12:47:31.137Z,100916.78
2018-11-27T12:48:09.179Z,100912.48
2018-11-27T12:48:46.897Z,100917.86
2018-11-27T12:49:24.839Z,100917.86
2018-11-27T12:50:53.317Z,100909.77
2018-11-27T12:51:31.335Z,100918.13
2018-11-27T12:52:09.075Z,100913.02
2018-11-27T12:52:46.817Z,100917.86
2018-11-27T12:53:24.573Z,100917.86
2018-11-27T12:54:02.347Z,100913.83
2018-11-27T12:54:40.254Z,100914.63
2018-11-27T12:55:22.220Z,100916.78
2018-11-27T12:56:00.247Z,100920.55
2018-11-27T12:56:43.592Z,100916.24
2018-11-27T12:57:16.375Z,100922.44
2018-11-27T12:57:54.142Z,100918.94
2018-11-27T12:58:32.290Z,100923.78
2018-11-27T12:59:10.996Z,100928.08
2018-11-27T12:59:50.135Z,100922.70
2018-11-27T13:00:28.267Z,100925.39
2018-11-27T13:01:09.477Z,100926.20
2018-11-27T13:01:48.924Z,100928.61
2018-11-27T13:02:27.463Z,100929.95
2018-11-27T13:03:06.086Z,100924.58
2018-11-27T13:03:43.815Z,100928.61
2018-11-27T13:04:21.604Z,100928.87
2018-11-27T13:05:02.325Z,100931.57
2018-11-27T13:05:42.740Z,100937.22
2018-11-27T13:06:27.705Z,100934.27
2018-11-27T13:07:06.292Z,100936.95
2018-11-27T13:07:44.065Z,100939.91
2018-11-27T13:08:26.201Z,100932.92
2018-11-27T13:09:04.806Z,100941.52
2018-11-27T13:09:42.845Z,100935.88
2018-11-27T13:10:23.146Z,100938.83
2018-11-27T13:11:01.174Z,100938.03
2018-11-27T13:11:38.994Z,100935.88
2018-11-27T13:12:17.195Z,100939.38
2018-11-27T13:12:55.009Z,100935.33
2018-11-27T13:13:32.892Z,100943.95
2018-11-27T13:14:11.127Z,100941.80
2018-11-27T13:14:48.827Z,100939.91
2018-11-27T13:15:26.778Z,100943.95
2018-11-27T13:16:04.625Z,100943.15
2018-11-27T13:16:42.364Z,100943.69
2018-11-27T13:17:20.119Z,100945.03
2018-11-27T13:17:58.245Z,100947.19
2018-11-27T13:18:35.939Z,100946.65
2018-11-27T13:19:13.729Z,100947.19
2018-11-27T13:19:51.521Z,100956.34
2018-11-27T13:20:29.235Z,100956.88
2018-11-27T13:21:07.027Z,100960.38
2018-11-27T13:21:45.000Z,100960.64
2018-11-27T13:22:22.976Z,100955.26
2018-11-27T13:23:01.064Z,100959.03
2018-11-27T13:23:39.168Z,100959.03
2018-11-27T13:24:17.025Z,100960.38
2018-11-27T13:24:54.770Z,100964.41
2018-11-27T13:25:32.668Z,100960.11
2018-11-27T13:26:10.425Z,100960.92
2018-11-27T13:26:48.623Z,100964.41
2018-11-27T13:27:27.079Z,100954.20
2018-11-27T13:28:04.979Z,100954.20
2018-11-27T13:28:45.253Z,100970.08
2018-11-27T13:29:23.034Z,100970.62
2018-11-27T13:30:01.019Z,100959.60
2018-11-27T13:31:10.723Z,100971.42
2018-11-27T13:31:48.609Z,100970.88
2018-11-27T13:32:26.351Z,100971.70
2018-11-27T13:33:12.822Z,100976.01
2018-11-27T13:34:12.198Z,100971.42
2018-11-27T13:34:52.509Z,100978.96
2018-11-27T13:35:28.802Z,100984.09
2018-11-27T13:36:06.582Z,100982.47
2018-11-27T13:36:44.712Z,100985.97
2018-11-27T13:37:22.534Z,100992.16
2018-11-27T13:38:00.536Z,100991.62
2018-11-27T13:38:38.425Z,100989.47
2018-11-27T13:39:39.599Z,100993.51
2018-11-27T13:40:17.683Z,100994.05
2018-11-27T13:40:55.698Z,100998.63
2018-11-27T13:41:33.549Z,101000.24
2018-11-27T13:42:12.042Z,100999.98
2018-11-27T13:42:49.722Z,101008.05
2018-11-27T13:43:31.737Z,100999.98
2018-11-27T13:44:09.682Z,101006.98
2018-11-27T13:44:47.534Z,101007.52
2018-11-27T13:45:25.480Z,101012.91
2018-11-27T13:46:04.028Z,101010.22
2018-11-27T13:46:42.016Z,101014.52
2018-11-27T13:47:20.010Z,101011.02
2018-11-27T13:47:58.127Z,101014.52
2018-11-27T13:48:36.554Z,101013.17
2018-11-27T13:49:14.508Z,101013.70
2018-11-27T13:49:52.476Z,101016.40
2018-11-27T13:50:30.234Z,101019.09
2018-11-27T13:51:09.199Z,101017.20
2018-11-27T13:51:47.007Z,101019.09
2018-11-27T13:52:24.857Z,101019.09
2018-11-27T13:53:02.618Z,101024.48
2018-11-27T13:53:40.497Z,101021.78
2018-11-27T13:54:18.235Z,101025.02
2018-11-27T13:54:56.011Z,101024.48
2018-11-27T13:55:33.968Z,101021.24
2018-11-27T13:56:11.969Z,101025.83
2018-11-27T13:56:49.695Z,101031.48
2018-11-27T13:57:27.412Z,101028.78
2018-11-27T13:58:05.185Z,101030.67
2018-11-27T13:58:43.057Z,101029.86
2018-11-27T13:59:20.775Z,101030.13
2018-11-27T13:59:58.572Z,101032.83
2018-11-27T14:00:36.309Z,101035.52
2018-11-27T14:01:14.117Z,101039.55
2018-11-27T14:01:51.883Z,101037.41
2018-11-27T14:02:29.603Z,101039.55
2018-11-27T14:03:10.774Z,101039.83
2018-11-27T14:03:46.037Z,101046.02
2018-11-27T14:04:23.972Z,101043.33
2018-11-27T14:05:01.784Z,101041.44
2018-11-27T14:05:39.523Z,101048.98
2018-11-27T14:06:17.447Z,101047.37
2018-11-27T14:06:55.545Z,101048.72
2018-11-27T14:07:33.653Z,101049.80
2018-11-27T14:08:12.576Z,101046.56
2018-11-27T14:08:50.527Z,101041.98
2018-11-27T14:09:28.347Z,101053.84
2018-11-27T14:10:06.145Z,101047.10
2018-11-27T14:10:44.214Z,101049.80
2018-11-27T14:11:22.025Z,101049.80
2018-11-27T14:12:00.101Z,101049.80
2018-11-27T14:12:38.552Z,101052.48
2018-11-27T14:13:16.308Z,101049.25
2018-11-27T14:13:54.121Z,101047.10
2018-11-27T14:14:31.974Z,101054.91
2018-11-27T14:15:13.449Z,101057.06
2018-11-27T14:15:51.379Z,101060.02
2018-11-27T14:16:29.310Z,101053.02
2018-11-27T14:17:06.998Z,101055.44
2018-11-27T14:17:44.847Z,101059.23
2018-11-27T14:18:22.609Z,101061.13
2018-11-27T14:19:00.334Z,101059.78
2018-11-27T14:19:38.172Z,101061.39
2018-11-27T14:20:16.038Z,101060.85
2018-11-27T14:20:53.883Z,101059.23
2018-11-27T14:21:31.884Z,101061.66
2018-11-27T14:22:09.826Z,101061.66
2018-11-27T14:22:51.157Z,101060.57
2018-11-27T14:23:29.209Z,101064.88
2018-11-27T14:24:07.409Z,101062.19
2018-11-27T14:24:45.177Z,101064.88
2018-11-27T14:25:22.977Z,101061.91
2018-11-27T14:26:00.914Z,101063.80
2018-11-27T14:26:38.828Z,101067.02
2018-11-27T14:27:16.655Z,101058.41
2018-11-27T14:27:54.955Z,101061.09
2018-11-27T14:28:32.851Z,101059.48
2018-11-27T14:29:10.483Z,101062.17
2018-11-27T14:29:48.414Z,101058.13
2018-11-27T14:30:29.005Z,101061.09
2018-11-27T14:31:07.014Z,101057.86
2018-11-27T14:31:46.039Z,101058.66
2018-11-27T14:32:24.155Z,101057.58
2018-11-27T14:33:02.506Z,101051.39
2018-11-27T14:33:40.791Z,101061.89
2018-11-27T14:34:19.091Z,101056.50
2018-11-27T14:34:59.857Z,101060.54
2018-11-27T14:35:35.165Z,101059.45
2018-11-27T14:36:13.115Z,101059.45
2018-11-27T14:36:51.109Z,101056.23
2018-11-27T14:37:28.776Z,101064.86
2018-11-27T14:38:06.519Z,101068.09
2018-11-27T14:38:44.409Z,101066.20
2018-11-27T14:39:23.019Z,101071.59
2018-11-27T14:40:00.947Z,101068.63
2018-11-27T14:40:38.985Z,101067.02
2018-11-27T14:41:16.802Z,101067.02
2018-11-27T14:41:54.559Z,101075.09
2018-11-27T14:42:32.786Z,101077.78
2018-11-27T14:43:13.890Z,101075.89
2018-11-27T14:43:54.975Z,101075.09
2018-11-27T14:44:34.014Z,101072.39
2018-11-27T14:45:22.531Z,101068.89
2018-11-27T14:46:01.729Z,101072.13
2018-11-27T14:46:40.339Z,101069.44
2018-11-27T14:47:19.055Z,101065.39
2018-11-27T14:47:58.092Z,101061.63
2018-11-27T14:48:35.844Z,101064.31
2018-11-27T14:49:15.168Z,101064.31
2018-11-27T14:49:53.311Z,101067.01
2018-11-27T14:50:31.026Z,101069.43
2018-11-27T14:51:08.934Z,101068.08
2018-11-27T14:51:46.859Z,101070.77
2018-11-27T14:52:25.193Z,101070.77
2018-11-27T14:53:02.922Z,101075.62
2018-11-27T14:53:40.599Z,101065.39
2018-11-27T14:54:18.657Z,101069.16
2018-11-27T14:54:56.464Z,101071.31
2018-11-27T14:55:35.236Z,101071.31
2018-11-27T14:56:13.000Z,101065.93
2018-11-27T14:56:50.918Z,101067.81
2018-11-27T14:57:28.774Z,101060.27
2018-11-27T14:58:06.798Z,101065.66
2018-11-27T14:58:44.771Z,101069.98
2018-11-27T14:59:22.533Z,101049.27
2018-11-27T15:00:00.345Z,101060.29
2018-11-27T15:00:38.105Z,101064.05
2018-11-27T15:01:15.888Z,101064.86
2018-11-27T15:01:53.638Z,101056.78
2018-11-27T15:02:31.380Z,101059.20
2018-11-27T15:03:09.578Z,101059.20
2018-11-27T15:03:47.540Z,101060.55
2018-11-27T15:04:25.374Z,101055.97
2018-11-27T15:05:03.029Z,101051.92
2018-11-27T15:05:44.174Z,101053.81
2018-11-27T15:06:21.920Z,101049.23
2018-11-27T15:06:59.679Z,101043.04
2018-11-27T15:07:37.557Z,101048.70
2018-11-27T15:08:16.006Z,101044.92
2018-11-27T15:08:53.764Z,101040.61
2018-11-27T15:09:31.548Z,101040.61
2018-11-27T15:10:11.057Z,101031.98
2018-11-27T15:10:48.875Z,101034.95
2018-11-27T15:11:26.668Z,101040.87
2018-11-27T15:12:04.685Z,101038.72
2018-11-27T15:12:42.439Z,101031.98
2018-11-27T15:13:20.183Z,101033.60
2018-11-27T15:13:57.925Z,101032.53
2018-11-27T15:14:35.951Z,101037.91
2018-11-27T15:15:17.424Z,101037.91
2018-11-27T15:15:55.169Z,101038.45
2018-11-27T15:16:32.977Z,101035.22
2018-11-27T15:17:11.047Z,101040.06
2018-11-27T15:17:48.851Z,101041.13
2018-11-27T15:18:26.635Z,101045.72
2018-11-27T15:19:04.501Z,101041.95
2018-11-27T15:19:42.552Z,101041.95
2018-11-27T15:20:24.694Z,101038.45
2018-11-27T15:21:02.639Z,101044.38
2018-11-27T15:21:40.352Z,101041.69
2018-11-27T15:22:18.136Z,101036.03
2018-11-27T15:22:55.961Z,101038.72
2018-11-27T15:23:33.897Z,101041.95
2018-11-27T15:24:11.758Z,101041.69
2018-11-27T15:24:50.200Z,101040.87
2018-11-27T15:25:27.913Z,101037.64
2018-11-27T15:26:05.753Z,101042.77
2018-11-27T15:26:43.698Z,101041.69
2018-11-27T15:27:21.421Z,101044.38
2018-11-27T15:27:59.292Z,101041.42
2018-11-27T15:28:37.082Z,101041.95
2018-11-27T15:29:14.794Z,101033.87
2018-11-27T15:29:52.614Z,101039.54
2018-11-27T15:30:31.424Z,101031.45
2018-11-27T15:31:09.137Z,101031.45
2018-11-27T15:31:46.924Z,101036.04
2018-11-27T15:32:24.733Z,101037.92
2018-11-27T15:33:02.956Z,101036.58
2018-11-27T15:33:40.925Z,101039.27
2018-11-27T15:34:18.794Z,101039.01
2018-11-27T15:34:56.537Z,101041.70
2018-11-27T15:35:34.421Z,101044.66
2018-11-27T15:36:12.170Z,101043.31
2018-11-27T15:36:50.077Z,101045.20
2018-11-27T15:37:27.922Z,101041.97
2018-11-27T15:38:05.832Z,101041.97
2018-11-27T15:38:43.567Z,101046.00
2018-11-27T15:39:21.275Z,101039.27
2018-11-27T15:39:59.250Z,101047.62
2018-11-27T15:40:37.182Z,101037.92
2018-11-27T15:41:14.946Z,101037.92
2018-11-27T15:41:52.676Z,101036.58
2018-11-27T15:42:30.507Z,101040.09
2018-11-27T15:43:08.294Z,101041.16
2018-11-27T15:43:46.149Z,101039.01
2018-11-27T15:44:23.838Z,101037.39
2018-11-27T15:45:01.762Z,101029.58
2018-11-27T15:45:39.596Z,101037.66
2018-11-27T15:46:17.528Z,101038.20
2018-11-27T15:46:55.228Z,101035.51
2018-11-27T15:47:33.021Z,101033.36
2018-11-27T15:48:11.765Z,101031.20
2018-11-27T15:48:49.511Z,101031.48
2018-11-27T15:49:27.384Z,101023.40
2018-11-27T15:50:05.122Z,101027.98
2018-11-27T15:50:42.853Z,101026.64
2018-11-27T15:51:20.767Z,101025.83
2018-11-27T15:52:53.255Z,101035.80
2018-11-27T15:53:31.210Z,101022.88
2018-11-27T15:54:08.949Z,101029.87
2018-11-27T15:54:46.729Z,101026.92
2018-11-27T15:55:34.389Z,101025.58
2018-11-27T15:56:12.250Z,101026.92
2018-11-27T15:56:49.947Z,101028.27
2018-11-27T15:57:27.698Z,101023.13
2018-11-27T15:58:13.316Z,101027.70
2018-11-27T15:58:51.077Z,101025.55
2018-11-27T15:59:28.809Z,101027.70
2018-11-27T16:00:06.801Z,101021.78
2018-11-27T16:00:45.243Z,101022.31
2018-11-27T16:01:22.947Z,101026.36
2018-11-27T16:02:00.801Z,101024.20
2018-11-27T16:02:38.651Z,101026.09
2018-11-27T16:03:16.525Z,101022.31
2018-11-27T16:03:54.323Z,101023.40
2018-11-27T16:04:32.255Z,101027.98
2018-11-27T16:05:10.307Z,101024.48
2018-11-27T16:05:48.089Z,101028.78
2018-11-27T16:06:25.823Z,101024.48
2018-11-27T16:07:03.793Z,101024.74
2018-11-27T16:07:41.504Z,101024.48
2018-11-27T16:08:19.577Z,101029.05
2018-11-27T16:08:57.298Z,101024.74
2018-11-27T16:09:35.252Z,101030.39
2018-11-27T16:10:14.379Z,101027.44
2018-11-27T16:10:52.199Z,101025.28
2018-11-27T16:11:30.055Z,101029.86
2018-11-27T16:12:07.868Z,101023.13
2018-11-27T16:12:45.764Z,101021.78
2018-11-27T16:13:23.467Z,101026.63
2018-11-27T16:14:01.339Z,101020.44
2018-11-27T16:14:39.059Z,101018.83
2018-11-27T16:15:21.217Z,101015.86
2018-11-27T16:15:59.089Z,101014.25
2018-11-27T16:16:37.024Z,101015.33
2018-11-27T16:17:14.902Z,101010.48
2018-11-27T16:17:53.322Z,101006.70
2018-11-27T16:18:31.082Z,101005.09
2018-11-27T16:19:08.852Z,101007.52
2018-11-27T16:19:46.776Z,101006.72
2018-11-27T16:20:24.622Z,101000.53
2018-11-27T16:21:02.389Z,101009.14
2018-11-27T16:21:40.108Z,101003.76
2018-11-27T16:22:18.020Z,101008.88
2018-11-27T16:22:56.413Z,101007.80
2018-11-27T16:23:34.254Z,101001.88
2018-11-27T16:24:12.228Z,101007.27
2018-11-27T16:24:49.993Z,101000.81
2018-11-27T16:25:30.744Z,101004.04
2018-11-27T16:26:08.641Z,101008.88
2018-11-27T16:26:46.568Z,101002.70
2018-11-27T16:27:24.464Z,100996.77
2018-11-27T16:28:02.324Z,101002.16
2018-11-27T16:28:40.431Z,101001.89
2018-11-27T16:29:18.224Z,101002.97
2018-11-27T16:29:56.081Z,100996.78
2018-11-27T16:30:34.548Z,100993.00
2018-11-27T16:31:12.445Z,100995.70
2018-11-27T16:31:50.243Z,100989.50
2018-11-27T16:32:28.069Z,101001.62
2018-11-27T16:33:05.875Z,100993.28
2018-11-27T16:33:43.668Z,101007.00
2018-11-27T16:34:21.538Z,101007.00
2018-11-27T16:34:59.319Z,101004.85
2018-11-27T16:35:37.322Z,101008.62
2018-11-27T16:36:14.993Z,101008.90
2018-11-27T16:36:52.751Z,101008.63
2018-11-27T16:37:30.632Z,101009.17
2018-11-27T16:38:08.833Z,101011.87
2018-11-27T16:38:46.671Z,101014.83
2018-11-27T16:39:24.475Z,101018.05
2018-11-27T16:40:02.246Z,101018.05
2018-11-27T16:40:41.914Z,101019.41
2018-11-27T16:41:19.859Z,101022.09
2018-11-27T16:41:57.614Z,101026.13
2018-11-27T16:42:35.450Z,101020.75
2018-11-27T16:43:13.237Z,101026.13
2018-11-27T16:43:50.984Z,101026.13
2018-11-27T16:44:28.852Z,101018.59
2018-11-27T16:45:07.218Z,101021.02
2018-11-27T16:45:44.960Z,101024.52
2018-11-27T16:46:22.664Z,101020.22
2018-11-27T16:47:00.394Z,101020.48
2018-11-27T16:47:38.197Z,101017.79
2018-11-27T16:48:16.422Z,101019.67
2018-11-27T16:48:54.284Z,101018.88
2018-11-27T16:49:32.151Z,101018.88
2018-11-27T16:50:10.794Z,101016.98
2018-11-27T16:50:48.771Z,101016.44
2018-11-27T16:51:26.553Z,101020.22
2018-11-27T16:52:04.299Z,101019.67
2018-11-27T16:52:42.105Z,101021.56
2018-11-27T16:53:19.805Z,101016.44
2018-11-27T16:53:57.455Z,101014.83
2018-11-27T16:54:35.258Z,101018.06
2018-11-27T16:55:14.270Z,101017.79
2018-11-27T16:55:52.223Z,101019.14
2018-11-27T16:56:30.227Z,101009.18
2018-11-27T16:57:08.185Z,101003.53
2018-11-27T16:57:46.139Z,101007.56
2018-11-27T16:58:24.214Z,101007.56
2018-11-27T16:59:01.952Z,101004.28
2018-11-27T16:59:39.779Z,101000.23
2018-11-27T17:00:24.594Z,100994.59
2018-11-27T17:01:02.597Z,100999.44
2018-11-27T17:01:40.914Z,101001.32
2018-11-27T17:02:18.856Z,101006.70
2018-11-27T17:03:00.299Z,101002.13
2018-11-27T17:03:38.222Z,101002.67
2018-11-27T17:04:16.084Z,101001.32
2018-11-27T17:04:53.998Z,101006.70
2018-11-27T17:05:39.451Z,101006.44
2018-11-27T17:06:17.245Z,101006.44
2018-11-27T17:06:55.160Z,101004.56
2018-11-27T17:07:33.130Z,101004.83
2018-11-27T17:08:11.081Z,101003.21
2018-11-27T17:08:49.088Z,101004.56
2018-11-27T17:09:27.053Z,101001.87
2018-11-27T17:10:04.989Z,100999.17
2018-11-27T17:10:44.079Z,100999.98
2018-11-27T17:11:21.947Z,100999.17
2018-11-27T17:11:59.932Z,101004.56
2018-11-27T17:12:37.817Z,101001.87
2018-11-27T17:13:16.459Z,101005.91
2018-11-27T17:13:54.315Z,101006.17
2018-11-27T17:14:32.290Z,101000.52
2018-11-27T17:15:14.612Z,101008.86
2018-11-27T17:15:52.457Z,101010.21
2018-11-27T17:16:30.385Z,101007.25
2018-11-27T17:17:08.543Z,101008.06
2018-11-27T17:17:46.467Z,101008.86
2018-11-27T17:18:24.269Z,101005.36
2018-11-27T17:19:02.296Z,101005.36
2018-11-27T17:19:40.381Z,101004.02
2018-11-27T17:20:25.690Z,101006.71
2018-11-27T17:21:03.462Z,101004.56
2018-11-27T17:21:41.500Z,101003.21
2018-11-27T17:22:19.287Z,101002.13
2018-11-27T17:22:57.678Z,101001.06
2018-11-27T17:23:35.652Z,100998.09
2018-11-27T17:24:13.631Z,101004.56
2018-11-27T17:24:51.481Z,101000.25
2018-11-27T17:25:29.366Z,101004.02
2018-11-27T17:26:07.183Z,101005.64
2018-11-27T17:26:44.909Z,101002.68
2018-11-27T17:27:22.830Z,101009.95
2018-11-27T17:28:04.738Z,101012.10
2018-11-27T17:28:42.649Z,101004.56
2018-11-27T17:29:20.444Z,101002.41
2018-11-27T17:29:58.407Z,100991.66
2018-11-27T17:30:52.750Z,100991.66
2018-11-27T17:31:30.700Z,101002.14
2018-11-27T17:32:08.934Z,100993.53
2018-11-27T17:32:46.964Z,100988.42
2018-11-27T17:33:32.158Z,100991.92
2018-11-27T17:34:14.726Z,100990.03
2018-11-27T17:34:52.598Z,100986.00
2018-11-27T17:35:30.868Z,100986.53
2018-11-27T17:36:10.326Z,100984.92
2018-11-27T17:36:48.314Z,100982.77
2018-11-27T17:37:26.069Z,100990.30
2018-11-27T17:38:03.886Z,100984.11
2018-11-27T17:38:42.041Z,100984.11
2018-11-27T17:39:19.967Z,100988.42
2018-11-27T17:39:57.885Z,100989.77
2018-11-27T17:40:35.705Z,100984.11
2018-11-27T17:41:13.771Z,100987.08